Airfield :







YOU CAN JOIN US ON...

 
LOGIN :

Register | Disclaimer

   EN    FR    IT 

 









Legend :    VFR   Marginal VFR   IFR   Intensive IFR   Very Intensive IFR
Visi :
Ceiling :
>= 8 km
>= 3000ft
5 to 8 km
1000 to 3000 ft
1500m to 5 km
500 to 1000 ft
800 to 1500m
200 to 500 ft
< 800m
< 200 ft
Symbols :   Thunderstorms  Fog  Heavy snow  Heavy precipitations  Wind > 20 kt






- Airport Elevation : 100 ft
- IATA code : PSM


KPSM - Portsmouth International at Pease

CURRENT METAR :
  • 301256Z 26009G15KT 10SM SCT025 SCT130 BKN250 23/18 A2976 RMK AO2A SLP080 T02340183

EXPIRED METARs :
  • 301156Z 24008KT 10SM FEW010 SCT120 OVC200 22/20 A2976 RMK AO2A SLP080 60004 70004 T02190196 10222 20206 50003
  • 301056Z 22006KT 10SM SCT120 21/20 A2976 RMK AO2A SLP080 T02080201

TAF KPSM
Valid from the 30 at 12:00 until the 31 at 12:00 UTC


301120Z 3012/3112 24009KT P6SM BKN050
FM301700 27010G18KT P6SM SCT250
FM310400 27006KT P6SM BKN100
KZBW FIR / North America



MET'MAP, your aeronautical weather chart ! - Copyright ORBIFLY December 2007 - Disclaimer

ORBIFLY MET'MAP TEAM :

Programming & Development : Alexandra Zaïnal
Concept & original design : Baudouin d'Aumeries
Assistance for programming : Marc-Olivier Méhu
Technical & hardware support : Manuel Goepfert

Contact : metmap@orbifly.com




SOURCES & CREDITS :

   NOAA